Thomastown, Mississippi
Current Conditions -  °F | °C
As of 7:54 AM on Monday 24 Nov 2014 (Local Time) from KJAN Reporting Station
Broken Clouds Broken Clouds  
Wind Chill: 54°   Ceiling: 2400
Heat Index: 54°   Visibility: 10mi
Dew Point: 44°   Wind: 13mph
Humidity: 69%   Direction: 310°NW
Pressure: 29.88"   Gusts: 21mph
Location:  32.86°N, 89.67°W
Report Text: KJAN 241354Z 31011G18KT 10SM BKN024 12/07 A2988 RMK AO2 SLP116 T01220067
Loading
Personal Weather Stations






























Interactive Weather Map New forecast layout! Learn more

10-Day Weather Forecast

Advertisements
Track Severe Weather on mobile